sensor_id;sensor_type;location;lat;lon;timestamp;pressure;altitude;pressure_sealevel;temperature;humidity
56831;BME280;42713;42.676;23.352;2023-05-18T00:01:47;94268.63;;;12.60;93.50
56831;BME280;42713;42.676;23.352;2023-05-18T00:04:12;94264.44;;;12.54;93.10
56831;BME280;42713;42.676;23.352;2023-05-18T00:06:38;94269.69;;;12.54;93.80
56831;BME280;42713;42.676;23.352;2023-05-18T00:09:04;94268.13;;;12.48;93.63
56831;BME280;42713;42.676;23.352;2023-05-18T00:11:29;94269.19;;;12.47;94.61
56831;BME280;42713;42.676;23.352;2023-05-18T00:13:55;94268.13;;;12.48;93.95
56831;BME280;42713;42.676;23.352;2023-05-18T00:16:20;94274.97;;;12.49;93.68
56831;BME280;42713;42.676;23.352;2023-05-18T00:18:46;94273.91;;;12.45;93.20
56831;BME280;42713;42.676;23.352;2023-05-18T00:21:11;94266.81;;;12.45;92.48
56831;BME280;42713;42.676;23.352;2023-05-18T00:23:37;94265.50;;;12.43;93.48
56831;BME280;42713;42.676;23.352;2023-05-18T00:26:03;94276.00;;;12.48;93.63
56831;BME280;42713;42.676;23.352;2023-05-18T00:28:29;94262.59;;;12.39;93.17
56831;BME280;42713;42.676;23.352;2023-05-18T00:30:55;94272.34;;;12.44;93.41
56831;BME280;42713;42.676;23.352;2023-05-18T00:33:21;94273.66;;;12.47;93.51
56831;BME280;42713;42.676;23.352;2023-05-18T00:35:47;94269.97;;;12.37;92.72
56831;BME280;42713;42.676;23.352;2023-05-18T00:38:12;94265.25;;;12.34;92.92
56831;BME280;42713;42.676;23.352;2023-05-18T00:40:40;94281.53;;;12.31;92.90
56831;BME280;42713;42.676;23.352;2023-05-18T00:43:06;94268.94;;;12.23;92.07
56831;BME280;42713;42.676;23.352;2023-05-18T00:45:31;94275.22;;;12.22;91.27
56831;BME280;42713;42.676;23.352;2023-05-18T00:47:57;94268.41;;;12.05;90.65
56831;BME280;42713;42.676;23.352;2023-05-18T00:50:22;94273.41;;;12.02;91.70
56831;BME280;42713;42.676;23.352;2023-05-18T00:52:48;94264.16;;;11.94;92.31
56831;BME280;42713;42.676;23.352;2023-05-18T00:55:14;94264.69;;;11.96;92.94
56831;BME280;42713;42.676;23.352;2023-05-18T00:57:40;94254.22;;;11.96;92.60
56831;BME280;42713;42.676;23.352;2023-05-18T01:00:11;94258.16;;;11.98;94.04
56831;BME280;42713;42.676;23.352;2023-05-18T01:02:39;94264.22;;;11.99;93.59
56831;BME280;42713;42.676;23.352;2023-05-18T01:05:08;94256.06;;;12.01;93.58
56831;BME280;42713;42.676;23.352;2023-05-18T01:07:38;94265.00;;;12.05;93.97
56831;BME280;42713;42.676;23.352;2023-05-18T01:10:07;94264.22;;;12.04;93.31
56831;BME280;42713;42.676;23.352;2023-05-18T01:12:58;94267.09;;;11.97;94.32
56831;BME280;42713;42.676;23.352;2023-05-18T01:15:34;94263.44;;;12.04;94.44
56831;BME280;42713;42.676;23.352;2023-05-18T01:24:27;94274.97;;;12.03;94.62
56831;BME280;42713;42.676;23.352;2023-05-18T01:26:59;94281.00;;;12.03;94.41
56831;BME280;42713;42.676;23.352;2023-05-18T01:29:25;94275.25;;;12.06;94.70
56831;BME280;42713;42.676;23.352;2023-05-18T01:31:56;94269.72;;;12.03;94.57
56831;BME280;42713;42.676;23.352;2023-05-18T01:34:21;94269.72;;;12.03;94.72
56831;BME280;42713;42.676;23.352;2023-05-18T01:36:47;94274.19;;;12.07;95.07
56831;BME280;42713;42.676;23.352;2023-05-18T01:39:13;94276.28;;;12.10;95.68
56831;BME280;42713;42.676;23.352;2023-05-18T01:41:53;94268.94;;;12.07;94.87
56831;BME280;42713;42.676;23.352;2023-05-18T01:44:26;94266.31;;;12.07;95.20
56831;BME280;42713;42.676;23.352;2023-05-18T01:47:00;94257.41;;;12.08;95.14
56831;BME280;42713;42.676;23.352;2023-05-18T01:52:36;94269.47;;;12.14;95.22
56831;BME280;42713;42.676;23.352;2023-05-18T01:55:04;94275.25;;;12.17;94.33
56831;BME280;42713;42.676;23.352;2023-05-18T01:57:31;94284.69;;;12.18;94.59
56831;BME280;42713;42.676;23.352;2023-05-18T01:59:58;94282.34;;;12.21;94.55
56831;BME280;42713;42.676;23.352;2023-05-18T02:02:24;94277.88;;;12.27;94.29
56831;BME280;42713;42.676;23.352;2023-05-18T02:04:50;94276.00;;;12.27;94.36
56831;BME280;42713;42.676;23.352;2023-05-18T02:07:16;94275.78;;;12.29;94.31
56831;BME280;42713;42.676;23.352;2023-05-18T02:09:41;94279.97;;;12.25;94.59
56831;BME280;42713;42.676;23.352;2023-05-18T02:12:08;94275.50;;;12.25;94.71
56831;BME280;42713;42.676;23.352;2023-05-18T02:14:34;94280.75;;;12.30;94.45
56831;BME280;42713;42.676;23.352;2023-05-18T02:16:59;94277.84;;;12.32;95.00
56831;BME280;42713;42.676;23.352;2023-05-18T02:19:25;94280.72;;;12.36;94.08
56831;BME280;42713;42.676;23.352;2023-05-18T02:21:50;94279.69;;;12.37;93.77
56831;BME280;42713;42.676;23.352;2023-05-18T02:24:16;94278.91;;;12.36;93.59
56831;BME280;42713;42.676;23.352;2023-05-18T02:26:44;94277.88;;;12.37;93.66
56831;BME280;42713;42.676;23.352;2023-05-18T02:29:10;94278.91;;;12.36;94.30
56831;BME280;42713;42.676;23.352;2023-05-18T02:31:39;94275.25;;;12.37;94.20
56831;BME280;42713;42.676;23.352;2023-05-18T02:34:04;94271.56;;;12.33;94.25
56831;BME280;42713;42.676;23.352;2023-05-18T02:36:30;94273.38;;;12.38;95.25
56831;BME280;42713;42.676;23.352;2023-05-18T02:39:04;94274.69;;;12.40;94.57
56831;BME280;42713;42.676;23.352;2023-05-18T02:41:34;94282.06;;;12.38;93.87
56831;BME280;42713;42.676;23.352;2023-05-18T02:44:00;94289.41;;;12.36;93.96
56831;BME280;42713;42.676;23.352;2023-05-18T02:46:28;94293.09;;;12.35;93.81
56831;BME280;42713;42.676;23.352;2023-05-18T02:48:54;94283.13;;;12.37;93.18
56831;BME280;42713;42.676;23.352;2023-05-18T02:51:20;94294.66;;;12.36;94.15
56831;BME280;42713;42.676;23.352;2023-05-18T02:53:46;94291.00;;;12.37;93.39
56831;BME280;42713;42.676;23.352;2023-05-18T02:56:11;94297.28;;;12.36;93.27
56831;BME280;42713;42.676;23.352;2023-05-18T02:58:37;94302.53;;;12.31;93.04
56831;BME280;42713;42.676;23.352;2023-05-18T03:01:04;94312.78;;;12.27;93.39
56831;BME280;42713;42.676;23.352;2023-05-18T03:03:32;94314.63;;;12.22;94.06
56831;BME280;42713;42.676;23.352;2023-05-18T03:05:59;94315.16;;;12.19;93.47
56831;BME280;42713;42.676;23.352;2023-05-18T03:08:27;94319.88;;;12.17;94.06
56831;BME280;42713;42.676;23.352;2023-05-18T03:10:56;94321.44;;;12.18;94.51
56831;BME280;42713;42.676;23.352;2023-05-18T03:13:22;94317.50;;;12.20;94.40
56831;BME280;42713;42.676;23.352;2023-05-18T03:15:47;94323.53;;;12.21;93.85
56831;BME280;42713;42.676;23.352;2023-05-18T03:18:15;94333.78;;;12.22;94.44
56831;BME280;42713;42.676;23.352;2023-05-18T03:20:41;94329.06;;;12.24;93.73
56831;BME280;42713;42.676;23.352;2023-05-18T03:23:07;94343.75;;;12.25;93.82
56831;BME280;42713;42.676;23.352;2023-05-18T03:25:33;94338.78;;;12.24;93.83
56831;BME280;42713;42.676;23.352;2023-05-18T03:28:04;94345.88;;;12.23;94.04
56831;BME280;42713;42.676;23.352;2023-05-18T03:30:33;94347.47;;;12.24;94.45
56831;BME280;42713;42.676;23.352;2023-05-18T03:32:59;94344.28;;;12.22;93.98
56831;BME280;42713;42.676;23.352;2023-05-18T03:35:26;94344.81;;;12.19;94.46
56831;BME280;42713;42.676;23.352;2023-05-18T03:37:51;94345.88;;;12.13;94.98
56831;BME280;42713;42.676;23.352;2023-05-18T03:40:17;94353.22;;;12.11;95.09
56831;BME280;42713;42.676;23.352;2023-05-18T03:42:43;94348.50;;;12.13;94.84
56831;BME280;42713;42.676;23.352;2023-05-18T03:45:09;94344.53;;;12.10;95.15
56831;BME280;42713;42.676;23.352;2023-05-18T03:47:36;94344.28;;;12.12;95.25
56831;BME280;42713;42.676;23.352;2023-05-18T03:50:02;94350.56;;;12.16;94.93
56831;BME280;42713;42.676;23.352;2023-05-18T03:52:28;94359.50;;;12.15;95.35
56831;BME280;42713;42.676;23.352;2023-05-18T03:54:54;94359.75;;;12.13;95.18
56831;BME280;42713;42.676;23.352;2023-05-18T03:57:20;94362.13;;;12.15;95.19
56831;BME280;42713;42.676;23.352;2023-05-18T03:59:45;94364.75;;;12.10;94.86
56831;BME280;42713;42.676;23.352;2023-05-18T04:02:11;94367.63;;;12.13;95.32
56831;BME280;42713;42.676;23.352;2023-05-18T04:04:38;94374.19;;;12.16;95.46
56831;BME280;42713;42.676;23.352;2023-05-18T04:07:14;94365.81;;;12.14;95.30
56831;BME280;42713;42.676;23.352;2023-05-18T04:09:46;94373.16;;;12.17;95.72
56831;BME280;42713;42.676;23.352;2023-05-18T04:12:12;94371.34;;;12.18;95.73
56831;BME280;42713;42.676;23.352;2023-05-18T04:14:37;94381.28;;;12.21;95.52
56831;BME280;42713;42.676;23.352;2023-05-18T04:17:06;94386.31;;;12.27;95.02
56831;BME280;42713;42.676;23.352;2023-05-18T04:19:36;94375.25;;;12.25;94.74
56831;BME280;42713;42.676;23.352;2023-05-18T04:22:03;94383.16;;;12.25;95.23
56831;BME280;42713;42.676;23.352;2023-05-18T04:24:31;94382.09;;;12.26;95.11
56831;BME280;42713;42.676;23.352;2023-05-18T04:26:59;94379.22;;;12.28;94.82
56831;BME280;42713;42.676;23.352;2023-05-18T04:29:25;94374.25;;;12.32;95.29
56831;BME280;42713;42.676;23.352;2023-05-18T04:31:52;94384.19;;;12.35;95.31
56831;BME280;42713;42.676;23.352;2023-05-18T04:34:24;94381.84;;;12.33;94.52
56831;BME280;42713;42.676;23.352;2023-05-18T04:36:50;94383.97;;;12.36;95.18
56831;BME280;42713;42.676;23.352;2023-05-18T04:39:18;94385.81;;;12.41;95.33
56831;BME280;42713;42.676;23.352;2023-05-18T04:41:45;94387.38;;;12.37;94.77
56831;BME280;42713;42.676;23.352;2023-05-18T04:44:11;94388.69;;;12.34;94.88
56831;BME280;42713;42.676;23.352;2023-05-18T04:46:38;94392.38;;;12.38;95.26
56831;BME280;42713;42.676;23.352;2023-05-18T04:49:05;94391.28;;;12.39;95.39
56831;BME280;42713;42.676;23.352;2023-05-18T04:51:30;94396.84;;;12.48;95.98
56831;BME280;42713;42.676;23.352;2023-05-18T04:54:00;94400.53;;;12.52;94.80
56831;BME280;42713;42.676;23.352;2023-05-18T04:56:25;94401.03;;;12.54;95.27
56831;BME280;42713;42.676;23.352;2023-05-18T04:58:51;94402.34;;;12.62;95.23
56831;BME280;42713;42.676;23.352;2023-05-18T05:01:17;94404.97;;;12.62;94.64
56831;BME280;42713;42.676;23.352;2023-05-18T05:03:43;94415.22;;;12.69;94.26
56831;BME280;42713;42.676;23.352;2023-05-18T05:06:09;94418.63;;;12.69;93.51
56831;BME280;42713;42.676;23.352;2023-05-18T05:08:36;94419.44;;;12.70;93.01
56831;BME280;42713;42.676;23.352;2023-05-18T05:11:01;94420.50;;;12.69;93.16
56831;BME280;42713;42.676;23.352;2023-05-18T05:13:27;94418.91;;;12.68;93.42
56831;BME280;42713;42.676;23.352;2023-05-18T05:15:53;94426.03;;;12.67;93.96
56831;BME280;42713;42.676;23.352;2023-05-18T05:18:18;94423.66;;;12.71;93.55
56831;BME280;42713;42.676;23.352;2023-05-18T05:20:44;94427.59;;;12.73;93.36
56831;BME280;42713;42.676;23.352;2023-05-18T05:23:09;94429.16;;;12.74;93.79
56831;BME280;42713;42.676;23.352;2023-05-18T05:25:35;94433.38;;;12.65;93.19
56831;BME280;42713;42.676;23.352;2023-05-18T05:28:00;94431.78;;;12.64;93.98
56831;BME280;42713;42.676;23.352;2023-05-18T05:30:26;94435.47;;;12.63;93.59
56831;BME280;42713;42.676;23.352;2023-05-18T05:32:51;94437.81;;;12.59;93.44
56831;BME280;42713;42.676;23.352;2023-05-18T05:35:17;94441.78;;;12.57;94.05
56831;BME280;42713;42.676;23.352;2023-05-18T05:37:43;94446.22;;;12.56;93.75
56831;BME280;42713;42.676;23.352;2023-05-18T05:40:09;94440.16;;;12.51;94.26
56831;BME280;42713;42.676;23.352;2023-05-18T05:42:34;94445.19;;;12.52;93.37
56831;BME280;42713;42.676;23.352;2023-05-18T05:45:00;94449.63;;;12.47;93.68
56831;BME280;42713;42.676;23.352;2023-05-18T05:47:26;94456.97;;;12.39;94.14
56831;BME280;42713;42.676;23.352;2023-05-18T05:49:51;94450.66;;;12.40;94.15
56831;BME280;42713;42.676;23.352;2023-05-18T05:52:16;94458.53;;;12.40;95.09
56831;BME280;42713;42.676;23.352;2023-05-18T05:54:42;94453.28;;;12.40;94.41
56831;BME280;42713;42.676;23.352;2023-05-18T05:57:07;94454.63;;;12.43;94.73
56831;BME280;42713;42.676;23.352;2023-05-18T05:59:33;94453.31;;;12.45;94.32
56831;BME280;42713;42.676;23.352;2023-05-18T06:01:58;94465.41;;;12.47;94.40
56831;BME280;42713;42.676;23.352;2023-05-18T06:04:24;94458.28;;;12.42;93.81
56831;BME280;42713;42.676;23.352;2023-05-18T06:06:49;94450.41;;;12.42;94.05
56831;BME280;42713;42.676;23.352;2023-05-18T06:09:15;94460.66;;;12.38;94.13
56831;BME280;42713;42.676;23.352;2023-05-18T06:11:40;94452.75;;;12.28;95.11
56831;BME280;42713;42.676;23.352;2023-05-18T06:14:06;94456.44;;;12.37;96.57
56831;BME280;42713;42.676;23.352;2023-05-18T06:16:31;94454.59;;;12.33;95.36
56831;BME280;42713;42.676;23.352;2023-05-18T06:18:57;94460.38;;;12.35;94.92
56831;BME280;42713;42.676;23.352;2023-05-18T06:21:22;94470.09;;;12.34;95.15
56831;BME280;42713;42.676;23.352;2023-05-18T06:23:48;94469.31;;;12.34;95.96
56831;BME280;42713;42.676;23.352;2023-05-18T06:26:13;94473.50;;;12.35;95.22
56831;BME280;42713;42.676;23.352;2023-05-18T06:28:39;94471.41;;;12.32;93.97
56831;BME280;42713;42.676;23.352;2023-05-18T06:31:04;94469.31;;;12.34;94.14
56831;BME280;42713;42.676;23.352;2023-05-18T06:33:30;94480.59;;;12.39;94.34
56831;BME280;42713;42.676;23.352;2023-05-18T06:35:55;94474.56;;;12.39;94.05
56831;BME280;42713;42.676;23.352;2023-05-18T06:38:21;94485.06;;;12.39;94.47
56831;BME280;42713;42.676;23.352;2023-05-18T06:40:47;94485.34;;;12.37;93.74
56831;BME280;42713;42.676;23.352;2023-05-18T06:43:12;94485.09;;;12.44;93.95
56831;BME280;42713;42.676;23.352;2023-05-18T06:45:38;94487.22;;;12.52;93.71
56831;BME280;42713;42.676;23.352;2023-05-18T06:48:05;94495.91;;;12.58;94.77
56831;BME280;42713;42.676;23.352;2023-05-18T06:50:31;94482.75;;;12.63;94.27
56831;BME280;42713;42.676;23.352;2023-05-18T06:52:56;94498.28;;;12.70;93.95
56831;BME280;42713;42.676;23.352;2023-05-18T06:55:21;94500.38;;;12.78;93.97
56831;BME280;42713;42.676;23.352;2023-05-18T06:57:47;94505.13;;;12.91;94.69
56831;BME280;42713;42.676;23.352;2023-05-18T07:00:13;94511.44;;;13.01;92.71
56831;BME280;42713;42.676;23.352;2023-05-18T07:02:38;94511.97;;;12.98;93.08
56831;BME280;42713;42.676;23.352;2023-05-18T07:05:05;94514.06;;;12.96;91.96
56831;BME280;42713;42.676;23.352;2023-05-18T07:07:34;94517.50;;;12.96;92.22
56831;BME280;42713;42.676;23.352;2023-05-18T07:10:00;94521.41;;;12.93;91.50
56831;BME280;42713;42.676;23.352;2023-05-18T07:12:27;94522.50;;;12.92;91.12
56831;BME280;42713;42.676;23.352;2023-05-18T07:14:53;94523.00;;;12.95;91.16
56831;BME280;42713;42.676;23.352;2023-05-18T07:17:18;94524.03;;;12.93;91.57
56831;BME280;42713;42.676;23.352;2023-05-18T07:19:44;94529.59;;;12.97;90.65
56831;BME280;42713;42.676;23.352;2023-05-18T07:22:09;94534.84;;;12.97;90.15
56831;BME280;42713;42.676;23.352;2023-05-18T07:24:35;94542.72;;;13.02;90.63
56831;BME280;42713;42.676;23.352;2023-05-18T07:27:00;94536.16;;;13.05;90.29
56831;BME280;42713;42.676;23.352;2023-05-18T07:29:26;94545.88;;;13.04;87.07
56831;BME280;42713;42.676;23.352;2023-05-18T07:31:51;94546.16;;;13.03;86.22
56831;BME280;42713;42.676;23.352;2023-05-18T07:34:16;94544.81;;;13.00;85.50
56831;BME280;42713;42.676;23.352;2023-05-18T07:36:42;94539.06;;;13.03;86.09
56831;BME280;42713;42.676;23.352;2023-05-18T07:39:07;94551.66;;;13.01;85.35
56831;BME280;42713;42.676;23.352;2023-05-18T07:41:33;94550.63;;;13.02;86.20
56831;BME280;42713;42.676;23.352;2023-05-18T07:43:59;94550.88;;;13.06;86.97
56831;BME280;42713;42.676;23.352;2023-05-18T07:46:25;94556.66;;;13.08;87.35
56831;BME280;42713;42.676;23.352;2023-05-18T07:48:50;94563.25;;;13.11;89.05
56831;BME280;42713;42.676;23.352;2023-05-18T07:51:16;94561.69;;;13.15;88.71
56831;BME280;42713;42.676;23.352;2023-05-18T07:53:41;94558.00;;;13.16;88.57
56831;BME280;42713;42.676;23.352;2023-05-18T07:56:07;94568.25;;;13.17;89.25
56831;BME280;42713;42.676;23.352;2023-05-18T07:58:36;94569.84;;;13.18;88.54
56831;BME280;42713;42.676;23.352;2023-05-18T08:01:02;94580.88;;;13.20;88.51
56831;BME280;42713;42.676;23.352;2023-05-18T08:03:30;94577.44;;;13.20;87.12
56831;BME280;42713;42.676;23.352;2023-05-18T08:05:56;94578.25;;;13.20;87.56
56831;BME280;42713;42.676;23.352;2023-05-18T08:08:21;94584.03;;;13.22;86.91
56831;BME280;42713;42.676;23.352;2023-05-18T08:10:46;94586.91;;;13.21;85.37
56831;BME280;42713;42.676;23.352;2023-05-18T08:13:12;94592.19;;;13.21;85.56
56831;BME280;42713;42.676;23.352;2023-05-18T08:15:38;94595.34;;;13.23;86.73
56831;BME280;42713;42.676;23.352;2023-05-18T08:18:07;94599.56;;;13.24;87.09
56831;BME280;42713;42.676;23.352;2023-05-18T08:20:32;94603.50;;;13.27;87.78
56831;BME280;42713;42.676;23.352;2023-05-18T08:22:58;94605.09;;;13.28;88.12
56831;BME280;42713;42.676;23.352;2023-05-18T08:25:24;94608.75;;;13.21;85.10
56831;BME280;42713;42.676;23.352;2023-05-18T08:27:49;94607.19;;;13.20;85.53
56831;BME280;42713;42.676;23.352;2023-05-18T08:30:15;94615.06;;;13.20;85.90
56831;BME280;42713;42.676;23.352;2023-05-18T08:32:40;94617.69;;;13.20;85.34
56831;BME280;42713;42.676;23.352;2023-05-18T08:35:06;94629.00;;;13.21;85.36
56831;BME280;42713;42.676;23.352;2023-05-18T08:37:33;94629.81;;;13.21;85.81
56831;BME280;42713;42.676;23.352;2023-05-18T08:39:58;94634.25;;;13.21;86.22
56831;BME280;42713;42.676;23.352;2023-05-18T08:42:36;94629.00;;;13.21;87.53
56831;BME280;42713;42.676;23.352;2023-05-18T08:47:33;94630.03;;;13.20;86.45
56831;BME280;42713;42.676;23.352;2023-05-18T08:50:00;94631.91;;;13.19;86.44
56831;BME280;42713;42.676;23.352;2023-05-18T08:52:28;94642.66;;;13.18;85.11
56831;BME280;42713;42.676;23.352;2023-05-18T08:54:59;94644.78;;;13.21;85.53
56831;BME280;42713;42.676;23.352;2023-05-18T08:57:29;94652.66;;;13.21;85.70
56831;BME280;42713;42.676;23.352;2023-05-18T08:59:59;94655.56;;;13.24;86.06
56831;BME280;42713;42.676;23.352;2023-05-18T09:02:26;94656.09;;;13.27;87.10
56831;BME280;42713;42.676;23.352;2023-05-18T09:04:52;94653.47;;;13.27;85.83
56831;BME280;42713;42.676;23.352;2023-05-18T09:07:19;94650.06;;;13.26;84.06
56831;BME280;42713;42.676;23.352;2023-05-18T09:09:46;94655.84;;;13.28;84.58
56831;BME280;42713;42.676;23.352;2023-05-18T09:12:12;94656.63;;;13.34;86.05
56831;BME280;42713;42.676;23.352;2023-05-18T09:17:33;94660.84;;;13.35;86.27
56831;BME280;42713;42.676;23.352;2023-05-18T09:19:59;94662.44;;;13.36;85.27
56831;BME280;42713;42.676;23.352;2023-05-18T09:22:25;94666.38;;;13.38;82.81
56831;BME280;42713;42.676;23.352;2023-05-18T09:24:51;94669.06;;;13.44;84.08
56831;BME280;42713;42.676;23.352;2023-05-18T09:27:16;94676.44;;;13.47;85.05
56831;BME280;42713;42.676;23.352;2023-05-18T09:29:55;94665.34;;;13.39;78.59
56831;BME280;42713;42.676;23.352;2023-05-18T09:32:21;94675.09;;;13.39;78.08
56831;BME280;42713;42.676;23.352;2023-05-18T09:34:47;94675.09;;;13.39;79.07
56831;BME280;42713;42.676;23.352;2023-05-18T09:37:18;94677.16;;;13.37;78.95
56831;BME280;42713;42.676;23.352;2023-05-18T09:39:57;94677.69;;;13.34;79.20
56831;BME280;42713;42.676;23.352;2023-05-18T09:42:46;94682.16;;;13.33;79.75
56831;BME280;42713;42.676;23.352;2023-05-18T09:45:20;94684.00;;;13.28;80.60
56831;BME280;42713;42.676;23.352;2023-05-18T09:47:51;94688.97;;;13.24;81.56
56831;BME280;42713;42.676;23.352;2023-05-18T09:50:21;94684.75;;;13.23;81.63
56831;BME280;42713;42.676;23.352;2023-05-18T09:52:47;94685.81;;;13.22;81.94
56831;BME280;42713;42.676;23.352;2023-05-18T09:55:16;94685.53;;;13.23;82.05
56831;BME280;42713;42.676;23.352;2023-05-18T09:57:44;94688.16;;;13.23;81.75
56831;BME280;42713;42.676;23.352;2023-05-18T10:00:11;94691.09;;;13.27;81.88
56831;BME280;42713;42.676;23.352;2023-05-18T10:02:47;94687.41;;;13.28;79.92
56831;BME280;42713;42.676;23.352;2023-05-18T10:05:21;94693.72;;;13.32;80.43
56831;BME280;42713;42.676;23.352;2023-05-18T10:07:49;94689.53;;;13.36;81.25
56831;BME280;42713;42.676;23.352;2023-05-18T10:10:19;94699.00;;;13.37;80.21
56831;BME280;42713;42.676;23.352;2023-05-18T10:12:46;94698.78;;;13.39;79.61
56831;BME280;42713;42.676;23.352;2023-05-18T10:15:19;94706.41;;;13.41;80.73
56831;BME280;42713;42.676;23.352;2023-05-18T10:17:46;94705.84;;;13.38;79.72
56831;BME280;42713;42.676;23.352;2023-05-18T10:20:16;94703.00;;;13.40;78.39
56831;BME280;42713;42.676;23.352;2023-05-18T10:22:44;94700.63;;;13.44;78.21
56831;BME280;42713;42.676;23.352;2023-05-18T10:25:10;94706.16;;;13.47;78.51
56831;BME280;42713;42.676;23.352;2023-05-18T10:27:40;94706.41;;;13.51;76.36
56831;BME280;42713;42.676;23.352;2023-05-18T10:30:09;94711.94;;;13.54;76.01
56831;BME280;42713;42.676;23.352;2023-05-18T10:32:35;94712.75;;;13.60;76.66
56831;BME280;42713;42.676;23.352;2023-05-18T10:35:03;94714.88;;;13.63;76.57
56831;BME280;42713;42.676;23.352;2023-05-18T10:37:37;94715.91;;;13.67;76.56
56831;BME280;42713;42.676;23.352;2023-05-18T10:40:05;94719.34;;;13.73;77.95
56831;BME280;42713;42.676;23.352;2023-05-18T10:42:32;94719.34;;;13.78;78.11
56831;BME280;42713;42.676;23.352;2023-05-18T10:44:58;94719.09;;;13.80;78.18
56831;BME280;42713;42.676;23.352;2023-05-18T10:47:29;94722.53;;;13.80;76.89
56831;BME280;42713;42.676;23.352;2023-05-18T10:49:57;94719.88;;;13.85;76.59
56831;BME280;42713;42.676;23.352;2023-05-18T10:52:23;94732.25;;;13.90;77.54
56831;BME280;42713;42.676;23.352;2023-05-18T10:54:59;94728.59;;;13.91;77.81
56831;BME280;42713;42.676;23.352;2023-05-18T10:57:32;94729.13;;;13.93;76.11
56831;BME280;42713;42.676;23.352;2023-05-18T10:59:59;94732.53;;;13.89;76.09
56831;BME280;42713;42.676;23.352;2023-05-18T11:02:25;94730.69;;;13.94;76.40
56831;BME280;42713;42.676;23.352;2023-05-18T11:04:52;94740.69;;;13.92;76.00
56831;BME280;42713;42.676;23.352;2023-05-18T11:07:27;94744.63;;;13.95;76.43
56831;BME280;42713;42.676;23.352;2023-05-18T11:09:55;94744.38;;;14.01;78.83
56831;BME280;42713;42.676;23.352;2023-05-18T11:12:21;94738.06;;;14.03;80.50
56831;BME280;42713;42.676;23.352;2023-05-18T11:14:52;94751.78;;;14.05;80.40
56831;BME280;42713;42.676;23.352;2023-05-18T11:28:07;94764.13;;;13.99;77.00
56831;BME280;42713;42.676;23.352;2023-05-18T11:33:35;94766.50;;;13.95;78.36
56831;BME280;42713;42.676;23.352;2023-05-18T11:36:11;94770.69;;;13.96;77.81
56831;BME280;42713;42.676;23.352;2023-05-18T11:39:03;94763.88;;;13.85;77.72
56831;BME280;42713;42.676;23.352;2023-05-18T11:41:37;94767.53;;;13.84;76.96
56831;BME280;42713;42.676;23.352;2023-05-18T11:44:05;94768.09;;;13.86;76.65
56831;BME280;42713;42.676;23.352;2023-05-18T11:46:31;94766.50;;;13.90;76.99
56831;BME280;42713;42.676;23.352;2023-05-18T11:49:02;94763.59;;;13.92;78.18
56831;BME280;42713;42.676;23.352;2023-05-18T11:51:30;94775.44;;;13.99;77.17
56831;BME280;42713;42.676;23.352;2023-05-18T11:53:57;94764.91;;;13.99;74.74
56831;BME280;42713;42.676;23.352;2023-05-18T11:56:24;94765.97;;;13.88;72.92
56831;BME280;42713;42.676;23.352;2023-05-18T11:59:09;94776.72;;;13.81;74.67
56831;BME280;42713;42.676;23.352;2023-05-18T12:01:35;94767.53;;;13.79;75.26
56831;BME280;42713;42.676;23.352;2023-05-18T12:04:02;94769.34;;;13.73;75.28
56831;BME280;42713;42.676;23.352;2023-05-18T12:06:28;94775.94;;;13.65;75.18
56831;BME280;42713;42.676;23.352;2023-05-18T12:08:54;94778.00;;;13.53;75.63
56831;BME280;42713;42.676;23.352;2023-05-18T12:11:20;94779.75;;;13.32;75.50
56831;BME280;42713;42.676;23.352;2023-05-18T12:13:47;94774.97;;;13.18;76.75
56831;BME280;42713;42.676;23.352;2023-05-18T12:16:16;94781.00;;;13.19;76.37
56831;BME280;42713;42.676;23.352;2023-05-18T12:18:47;94786.25;;;13.14;77.15
56831;BME280;42713;42.676;23.352;2023-05-18T12:21:13;94787.78;;;13.10;75.03
56831;BME280;42713;42.676;23.352;2023-05-18T12:23:38;94788.06;;;13.08;76.48
56831;BME280;42713;42.676;23.352;2023-05-18T12:26:04;94792.28;;;13.14;76.75
56831;BME280;42713;42.676;23.352;2023-05-18T12:28:30;94785.75;;;13.22;75.80
56831;BME280;42713;42.676;23.352;2023-05-18T12:30:56;94794.19;;;13.29;76.26
56831;BME280;42713;42.676;23.352;2023-05-18T12:33:22;94794.50;;;13.38;76.56
56831;BME280;42713;42.676;23.352;2023-05-18T12:35:48;94791.13;;;13.48;77.32
56831;BME280;42713;42.676;23.352;2023-05-18T12:38:16;94786.16;;;13.57;76.92
56831;BME280;42713;42.676;23.352;2023-05-18T12:40:41;94786.97;;;13.62;74.91
56831;BME280;42713;42.676;23.352;2023-05-18T12:43:12;94791.19;;;13.68;74.93
56831;BME280;42713;42.676;23.352;2023-05-18T12:45:38;94787.53;;;13.75;75.24
56831;BME280;42713;42.676;23.352;2023-05-18T12:48:10;94792.78;;;13.80;76.82
56831;BME280;42713;42.676;23.352;2023-05-18T12:50:37;94798.09;;;13.85;77.63
56831;BME280;42713;42.676;23.352;2023-05-18T12:53:09;94794.66;;;13.84;80.19
56831;BME280;42713;42.676;23.352;2023-05-18T12:55:35;94793.88;;;13.89;81.40
56831;BME280;42713;42.676;23.352;2023-05-18T12:58:11;94799.41;;;13.88;78.40
56831;BME280;42713;42.676;23.352;2023-05-18T13:00:45;94796.50;;;13.89;79.48
56831;BME280;42713;42.676;23.352;2023-05-18T13:03:13;94795.19;;;13.92;81.10
56831;BME280;42713;42.676;23.352;2023-05-18T13:05:38;94798.88;;;13.96;81.11
56831;BME280;42713;42.676;23.352;2023-05-18T13:08:06;94799.41;;;13.98;80.69
56831;BME280;42713;42.676;23.352;2023-05-18T13:10:32;94810.22;;;14.01;81.13
56831;BME280;42713;42.676;23.352;2023-05-18T13:12:58;94802.03;;;14.03;82.15
56831;BME280;42713;42.676;23.352;2023-05-18T13:15:32;94807.59;;;14.01;80.42
56831;BME280;42713;42.676;23.352;2023-05-18T13:17:59;94802.03;;;14.03;80.22
56831;BME280;42713;42.676;23.352;2023-05-18T13:20:30;94795.72;;;14.04;79.58